Time;durP1;ratioP1;P1;durP2;ratioP2;P2;SDS_P1;SDS_P2;PMS_P1;PMS_P2;Temp;Humidity;BMP_temperature;BMP_pressure;BME280_temperature;BME280_humidity;BME280_pressure;Samples;Min_cycle;Max_cycle;Signal;HPM_P1;HPM_P2
2022/08/27 00:02:00;;;;;;;13.97;10.00;;;20.60;99.90;;;;;;4158978;28;20200;-83
2022/08/27 00:04:02;;;;;;;14.23;10.10;;;20.60;99.90;;;;;;4146071;28;20226;-82
2022/08/27 00:06:04;;;;;;;15.87;11.63;;;20.60;99.90;;;;;;4159282;28;20680;-83
2022/08/27 00:08:08;;;;;;;18.60;12.10;;;20.60;99.90;;;;;;4156080;28;20206;-81
2022/08/27 00:10:16;;;;;;;16.93;12.63;;;20.50;99.90;;;;;;4156845;28;20215;-81
2022/08/27 00:12:18;;;;;;;20.67;12.50;;;20.50;99.90;;;;;;4156473;28;20220;-81
2022/08/27 00:14:20;;;;;;;18.60;12.40;;;20.40;99.90;;;;;;4159744;28;20223;-83
2022/08/27 00:16:23;;;;;;;15.60;11.77;;;20.40;99.90;;;;;;4154860;28;20218;-82
2022/08/27 00:18:26;;;;;;;17.70;12.40;;;20.40;99.90;;;;;;4155923;28;20239;-84
2022/08/27 00:20:28;;;;;;;17.40;12.17;;;20.40;99.90;;;;;;4158558;28;20249;-83
2022/08/27 00:22:30;;;;;;;17.13;12.40;;;20.40;99.90;;;;;;4158216;28;20214;-82
2022/08/27 00:24:32;;;;;;;17.60;12.43;;;20.40;99.90;;;;;;4154080;28;20211;-82
2022/08/27 00:26:34;;;;;;;19.33;12.50;;;20.40;99.90;;;;;;4141178;28;20218;-82
2022/08/27 00:28:37;;;;;;;17.43;12.87;;;20.30;99.90;;;;;;4141309;28;20734;-82
2022/08/27 00:30:39;;;;;;;16.53;12.03;;;20.40;99.90;;;;;;4137904;28;20258;-84
2022/08/27 00:32:42;;;;;;;15.73;11.87;;;20.30;99.90;;;;;;4156230;28;20221;-85
2022/08/27 00:34:45;;;;;;;18.77;12.17;;;20.30;99.90;;;;;;4157642;28;20671;-83
2022/08/27 00:36:47;;;;;;;16.77;12.37;;;20.30;99.90;;;;;;4155241;28;20638;-82
2022/08/27 00:38:49;;;;;;;17.03;12.77;;;20.30;99.90;;;;;;4156449;28;20732;-82
2022/08/27 00:40:52;;;;;;;15.30;11.13;;;20.30;99.90;;;;;;4155457;28;20243;-84
2022/08/27 00:42:54;;;;;;;17.30;13.43;;;20.30;99.90;;;;;;4157328;28;20215;-83
2022/08/27 00:44:56;;;;;;;19.03;13.93;;;20.20;99.90;;;;;;4139845;28;20204;-83
2022/08/27 00:47:00;;;;;;;18.87;13.57;;;20.20;99.90;;;;;;4139959;28;20209;-83
2022/08/27 00:49:08;;;;;;;18.90;12.90;;;20.20;99.90;;;;;;4139998;28;20921;-83
2022/08/27 00:51:11;;;;;;;17.87;12.83;;;20.20;99.90;;;;;;4138764;28;20649;-84
2022/08/27 00:53:21;;;;;;;19.07;12.90;;;20.20;99.90;;;;;;4157430;28;20231;-83
2022/08/27 00:55:26;;;;;;;19.43;13.10;;;20.20;99.90;;;;;;4141844;28;20239;-83
2022/08/27 00:57:29;;;;;;;18.03;12.23;;;20.20;99.90;;;;;;4163429;28;20230;-84
2022/08/27 00:59:31;;;;;;;17.87;12.03;;;20.20;99.90;;;;;;4158899;28;20807;-83
2022/08/27 01:02:17;;;;;;;18.20;12.90;;;20.20;99.90;;;;;;4145305;28;20207;-82
2022/08/27 01:04:00;;;;;;;16.70;12.67;;;20.20;99.90;;;;;;4157706;28;20231;-83
2022/08/27 01:06:04;;;;;;;15.23;11.67;;;20.20;99.90;;;;;;4155737;28;20203;-81
2022/08/27 01:08:11;;;;;;;17.07;12.80;;;20.10;99.90;;;;;;4158324;28;20298;-84
2022/08/27 01:10:19;;;;;;;15.90;11.50;;;20.10;99.90;;;;;;4160875;28;20207;-81
2022/08/27 01:12:21;;;;;;;17.33;12.70;;;20.20;99.90;;;;;;4150936;28;20665;-81
2022/08/27 01:14:23;;;;;;;17.33;12.13;;;20.10;99.90;;;;;;4157257;28;20207;-82
2022/08/27 01:16:29;;;;;;;15.73;12.40;;;20.10;99.90;;;;;;4151851;28;20766;-81
2022/08/27 01:18:34;;;;;;;15.73;11.57;;;20.10;99.90;;;;;;4150075;28;20231;-83
2022/08/27 01:20:41;;;;;;;15.23;11.33;;;20.10;99.90;;;;;;4151074;28;20282;-81
2022/08/27 01:22:52;;;;;;;16.73;11.90;;;20.10;99.90;;;;;;4154030;28;20257;-81
2022/08/27 01:24:58;;;;;;;18.17;12.43;;;20.10;99.90;;;;;;4138179;28;20346;-81
2022/08/27 01:27:01;;;;;;;17.77;12.83;;;20.10;99.90;;;;;;4138551;28;20228;-81
2022/08/27 01:29:04;;;;;;;16.57;12.07;;;20.10;99.90;;;;;;4137116;28;20232;-81
2022/08/27 01:31:07;;;;;;;15.97;11.87;;;20.10;99.90;;;;;;4155900;28;20202;-82
2022/08/27 01:33:10;;;;;;;18.10;12.03;;;20.10;99.90;;;;;;4138294;28;20279;-82
2022/08/27 01:35:15;;;;;;;18.63;13.20;;;20.10;99.90;;;;;;4143217;28;20272;-81
2022/08/27 01:37:18;;;;;;;18.03;12.07;;;20.10;99.90;;;;;;4158751;28;20272;-83
2022/08/27 01:39:20;;;;;;;18.17;12.43;;;20.10;99.90;;;;;;4137987;28;20267;-82
2022/08/27 01:41:24;;;;;;;17.53;12.63;;;20.10;99.90;;;;;;4156333;28;20668;-83
2022/08/27 01:43:26;;;;;;;16.80;12.20;;;20.10;99.90;;;;;;4141046;28;20222;-83
2022/08/27 01:45:30;;;;;;;18.03;12.07;;;20.00;99.90;;;;;;4152571;28;20239;-82
2022/08/27 01:47:32;;;;;;;16.67;11.83;;;20.00;99.90;;;;;;4157877;28;20211;-82
2022/08/27 01:49:34;;;;;;;16.53;11.93;;;20.00;99.90;;;;;;4160265;28;20255;-83
2022/08/27 01:51:36;;;;;;;15.20;11.17;;;20.00;99.90;;;;;;4155729;28;20213;-82
2022/08/27 01:53:38;;;;;;;15.60;11.57;;;20.00;99.90;;;;;;4157961;28;20199;-83
2022/08/27 01:55:41;;;;;;;15.80;11.67;;;20.00;99.90;;;;;;4159758;28;20216;-83
2022/08/27 01:57:45;;;;;;;15.47;11.80;;;20.00;99.90;;;;;;4148244;28;20246;-82
2022/08/27 01:59:47;;;;;;;17.70;12.17;;;20.00;99.90;;;;;;4141559;28;20270;-81
2022/08/27 02:01:50;;;;;;;14.50;11.40;;;20.10;99.90;;;;;;4164658;28;20214;-84
2022/08/27 02:03:52;;;;;;;16.33;12.33;;;20.00;99.90;;;;;;4145702;28;20234;-82
2022/08/27 02:05:53;;;;;;;15.60;12.13;;;20.00;99.90;;;;;;4141306;28;20866;-82
2022/08/27 02:07:56;;;;;;;18.17;12.80;;;20.00;99.90;;;;;;4141683;28;20215;-82
2022/08/27 02:09:58;;;;;;;15.43;12.03;;;20.00;99.90;;;;;;4162120;28;20235;-81
2022/08/27 02:12:01;;;;;;;14.80;11.07;;;20.00;99.90;;;;;;4160797;28;20211;-82
2022/08/27 02:14:04;;;;;;;17.57;13.07;;;20.00;99.90;;;;;;4164248;28;20710;-83
2022/08/27 02:16:06;;;;;;;18.63;12.93;;;20.00;99.90;;;;;;4143134;28;20712;-82
2022/08/27 02:18:10;;;;;;;17.13;13.00;;;20.00;99.90;;;;;;4141460;28;20214;-82
2022/08/27 02:20:12;;;;;;;19.90;12.13;;;20.00;99.90;;;;;;4138762;28;20690;-82
2022/08/27 02:22:15;;;;;;;17.67;12.87;;;20.00;99.90;;;;;;4142181;28;20862;-80
2022/08/27 02:24:17;;;;;;;19.73;12.83;;;19.90;99.90;;;;;;4157455;28;20735;-82
2022/08/27 02:26:19;;;;;;;18.57;13.23;;;20.00;99.90;;;;;;4162265;28;20259;-82
2022/08/27 02:28:21;;;;;;;16.27;12.03;;;20.00;99.90;;;;;;4164298;28;20260;-81
2022/08/27 02:30:25;;;;;;;17.27;12.40;;;20.00;99.90;;;;;;4156311;28;20293;-81
2022/08/27 02:32:27;;;;;;;17.80;12.47;;;19.90;99.90;;;;;;4146272;28;20315;-81
2022/08/27 02:34:29;;;;;;;17.30;12.50;;;19.90;99.90;;;;;;4163157;28;20201;-82
2022/08/27 02:36:31;;;;;;;19.83;12.73;;;19.90;99.90;;;;;;4166843;28;20251;-82
2022/08/27 02:38:33;;;;;;;20.57;14.53;;;19.90;99.90;;;;;;4141961;28;20256;-82
2022/08/27 02:40:36;;;;;;;23.30;14.87;;;19.90;99.90;;;;;;4161335;28;20528;-81
2022/08/27 02:42:38;;;;;;;24.27;15.33;;;19.80;99.90;;;;;;4163870;28;20202;-83
2022/08/27 02:44:40;;;;;;;20.57;14.07;;;19.90;99.90;;;;;;4148212;28;20280;-82
2022/08/27 02:46:44;;;;;;;20.00;13.73;;;19.90;99.90;;;;;;4148728;28;20216;-82
2022/08/27 02:48:46;;;;;;;22.40;15.00;;;19.90;99.90;;;;;;4163711;28;20228;-83
2022/08/27 02:50:49;;;;;;;21.53;14.43;;;19.90;99.90;;;;;;4148181;28;20216;-86
2022/08/27 02:52:51;;;;;;;21.13;14.53;;;19.90;99.90;;;;;;4136950;28;20483;-82
2022/08/27 02:54:53;;;;;;;21.27;14.70;;;19.90;99.90;;;;;;4138765;28;20785;-82
2022/08/27 02:56:55;;;;;;;23.97;15.10;;;19.90;99.90;;;;;;4165749;28;20293;-82
2022/08/27 02:58:57;;;;;;;24.40;15.70;;;19.90;99.90;;;;;;4157944;28;20308;-83
2022/08/27 03:01:00;;;;;;;20.43;14.20;;;19.90;99.90;;;;;;4157824;28;20221;-80
2022/08/27 03:03:03;;;;;;;21.80;14.40;;;19.90;99.90;;;;;;4160091;28;20218;-80
2022/08/27 03:05:06;;;;;;;21.77;14.87;;;19.90;99.90;;;;;;4157823;28;20255;-81
2022/08/27 03:07:08;;;;;;;22.03;15.23;;;19.90;99.90;;;;;;4139709;28;20209;-83
2022/08/27 03:09:10;;;;;;;21.57;14.03;;;19.90;99.90;;;;;;4159872;28;20345;-81
2022/08/27 03:11:12;;;;;;;21.00;14.33;;;19.90;99.90;;;;;;4162339;28;20702;-82
2022/08/27 03:13:14;;;;;;;19.83;13.50;;;19.90;99.90;;;;;;4165986;28;20240;-81
2022/08/27 03:15:18;;;;;;;18.70;13.67;;;19.90;99.90;;;;;;4163115;28;20202;-83
2022/08/27 03:19:41;;;;;;;27.90;15.03;;;19.90;99.90;;;;;;4145212;28;20263;-81
2022/08/27 03:21:43;;;;;;;23.77;15.57;;;19.90;99.90;;;;;;4128016;28;20561;-84
2022/08/27 03:23:47;;;;;;;20.80;14.80;;;19.90;99.90;;;;;;4160596;28;20208;-83
2022/08/27 03:25:52;;;;;;;20.73;14.17;;;19.90;99.90;;;;;;4144833;28;20204;-84
2022/08/27 03:27:54;;;;;;;20.43;13.57;;;19.90;99.90;;;;;;4157353;28;20203;-83
2022/08/27 03:29:56;;;;;;;21.87;14.63;;;19.80;99.90;;;;;;4162032;28;20670;-84
2022/08/27 03:31:58;;;;;;;20.80;14.40;;;19.80;99.90;;;;;;4164563;28;20203;-84
2022/08/27 03:34:03;;;;;;;21.87;14.33;;;19.80;99.90;;;;;;4162097;28;20388;-84
2022/08/27 03:36:08;;;;;;;21.47;14.10;;;19.80;99.90;;;;;;4146087;28;20212;-83
2022/08/27 03:38:10;;;;;;;19.87;14.13;;;19.80;99.90;;;;;;4143984;28;20214;-85
2022/08/27 03:40:13;;;;;;;19.27;13.33;;;19.80;99.90;;;;;;4161443;28;20204;-84
2022/08/27 03:42:15;;;;;;;22.67;14.30;;;19.80;99.90;;;;;;4162933;28;20213;-84
2022/08/27 03:44:17;;;;;;;20.63;13.90;;;19.80;99.90;;;;;;4160098;28;20920;-83
2022/08/27 03:46:21;;;;;;;21.63;14.70;;;19.80;99.90;;;;;;4142878;28;20208;-83
2022/08/27 03:48:23;;;;;;;20.77;14.80;;;19.80;99.90;;;;;;4141323;28;20215;-83
2022/08/27 03:50:25;;;;;;;21.20;14.60;;;19.70;99.90;;;;;;4162374;28;20214;-83
2022/08/27 03:52:29;;;;;;;24.77;14.60;;;19.70;99.90;;;;;;4159121;28;20815;-82
2022/08/27 03:54:33;;;;;;;20.80;13.63;;;19.70;99.90;;;;;;4142087;28;20239;-83
2022/08/27 03:56:38;;;;;;;26.17;15.13;;;19.70;99.90;;;;;;4143889;28;20280;-83
2022/08/27 03:58:40;;;;;;;24.73;16.13;;;19.70;99.90;;;;;;4163738;28;20278;-86
2022/08/27 04:00:42;;;;;;;24.47;16.07;;;19.70;99.90;;;;;;4167507;28;20242;-86
2022/08/27 04:02:44;;;;;;;26.03;16.00;;;19.60;99.90;;;;;;4151690;28;20238;-85
2022/08/27 04:04:49;;;;;;;24.83;16.93;;;19.60;99.90;;;;;;4166548;28;20253;-85
2022/08/27 04:06:51;;;;;;;29.10;17.37;;;19.60;99.90;;;;;;4165187;28;20236;-85
2022/08/27 04:08:54;;;;;;;23.90;15.23;;;19.60;99.90;;;;;;4145592;28;20351;-84
2022/08/27 04:10:56;;;;;;;23.87;15.17;;;19.70;99.90;;;;;;4148427;28;20222;-84
2022/08/27 04:12:58;;;;;;;21.90;14.40;;;19.50;99.90;;;;;;4144165;28;20211;-84
2022/08/27 04:15:00;;;;;;;18.80;13.57;;;19.60;99.90;;;;;;4148700;28;20227;-85
2022/08/27 04:17:02;;;;;;;19.70;12.77;;;19.60;99.90;;;;;;4148331;28;20201;-82
2022/08/27 04:19:04;;;;;;;19.23;13.57;;;19.60;99.90;;;;;;4146776;28;20222;-82
2022/08/27 04:21:12;;;;;;;17.67;12.40;;;19.50;99.90;;;;;;4160075;28;20211;-82
2022/08/27 04:23:14;;;;;;;22.90;12.90;;;19.50;99.90;;;;;;4154791;28;20204;-83
2022/08/27 04:25:17;;;;;;;19.67;12.20;;;19.50;99.90;;;;;;4158395;28;20271;-80
2022/08/27 04:27:20;;;;;;;18.33;12.47;;;19.50;99.90;;;;;;4139471;28;20254;-80
2022/08/27 04:29:21;;;;;;;21.23;11.67;;;19.50;99.90;;;;;;4140478;28;20239;-81
2022/08/27 04:31:24;;;;;;;16.13;11.30;;;19.50;99.90;;;;;;4158543;28;20278;-81
2022/08/27 04:33:26;;;;;;;15.20;10.77;;;19.50;99.90;;;;;;4155093;28;20313;-81
2022/08/27 04:35:28;;;;;;;17.97;11.13;;;19.50;99.90;;;;;;4160063;28;20196;-80
2022/08/27 04:37:31;;;;;;;14.77;10.47;;;19.50;99.90;;;;;;4143113;28;20691;-81
2022/08/27 04:39:33;;;;;;;18.37;11.63;;;19.50;99.90;;;;;;4160467;28;20322;-80
2022/08/27 04:41:36;;;;;;;17.67;10.40;;;19.50;99.90;;;;;;4156446;28;20242;-81
2022/08/27 04:43:38;;;;;;;15.27;10.13;;;19.50;99.90;;;;;;4139349;28;20285;-80
2022/08/27 04:45:43;;;;;;;14.10;9.67;;;19.50;99.90;;;;;;4137154;28;20556;-79
2022/08/27 04:47:45;;;;;;;13.97;9.03;;;19.60;99.90;;;;;;4158781;28;20203;-79
2022/08/27 04:49:47;;;;;;;14.40;9.37;;;19.50;99.90;;;;;;4140310;28;20918;-79
2022/08/27 04:51:49;;;;;;;13.17;8.50;;;19.50;99.90;;;;;;4132601;28;20621;-79
2022/08/27 04:53:51;;;;;;;12.10;9.00;;;19.50;99.90;;;;;;4156579;28;20231;-79
2022/08/27 04:55:55;;;;;;;12.97;9.07;;;19.50;99.90;;;;;;4137288;28;20230;-79
2022/08/27 04:57:59;;;;;;;11.77;8.53;;;19.50;99.90;;;;;;4139473;28;20844;-79
2022/08/27 05:00:01;;;;;;;13.07;9.27;;;19.50;99.90;;;;;;4156967;28;20945;-79
2022/08/27 05:02:04;;;;;;;13.17;9.20;;;19.50;99.90;;;;;;4152385;28;20223;-79
2022/08/27 05:04:07;;;;;;;15.10;9.27;;;19.50;99.90;;;;;;4159705;28;20250;-79
2022/08/27 05:06:11;;;;;;;12.90;8.70;;;19.50;99.90;;;;;;4155036;28;20779;-80
2022/08/27 05:08:13;;;;;;;15.80;9.93;;;19.50;99.90;;;;;;4151663;28;20245;-79
2022/08/27 05:10:15;;;;;;;17.23;10.00;;;19.50;99.90;;;;;;4159979;28;20220;-79
2022/08/27 05:12:16;;;;;;;19.47;10.33;;;19.50;99.90;;;;;;4164612;28;20238;-80
2022/08/27 05:14:21;;;;;;;16.43;9.87;;;19.50;99.90;;;;;;4142084;28;20236;-80
2022/08/27 05:16:23;;;;;;;17.40;10.10;;;19.50;99.90;;;;;;4140481;28;20200;-80
2022/08/27 05:18:25;;;;;;;16.07;10.27;;;19.50;99.90;;;;;;4155130;28;20207;-80
2022/08/27 05:20:27;;;;;;;15.10;9.57;;;19.40;99.90;;;;;;4159829;28;20242;-80
2022/08/27 05:22:28;;;;;;;15.23;10.03;;;19.50;99.90;;;;;;4154861;28;20207;-80
2022/08/27 05:24:31;;;;;;;15.80;10.30;;;19.40;99.90;;;;;;4157858;28;20714;-80
2022/08/27 05:26:34;;;;;;;15.93;10.60;;;19.40;99.90;;;;;;4156549;28;20211;-80
2022/08/27 05:28:36;;;;;;;14.37;9.30;;;19.50;99.90;;;;;;4155637;28;20226;-79
2022/08/27 05:30:42;;;;;;;16.20;9.60;;;19.50;99.90;;;;;;4153208;28;20208;-81
2022/08/27 05:32:44;;;;;;;14.30;9.10;;;19.50;99.90;;;;;;4153299;28;20206;-79
2022/08/27 05:34:46;;;;;;;13.83;10.07;;;19.50;99.90;;;;;;4151523;28;20290;-78
2022/08/27 05:36:48;;;;;;;14.60;9.57;;;19.50;99.90;;;;;;4134803;28;20285;-80
2022/08/27 05:38:50;;;;;;;17.43;9.77;;;19.50;99.90;;;;;;4145320;28;20320;-80
2022/08/27 05:41:04;;;;;;;12.70;8.90;;;19.60;99.90;;;;;;4132943;28;20219;-80
2022/08/27 05:43:06;;;;;;;13.13;9.53;;;19.60;99.90;;;;;;4154111;28;20215;-80
2022/08/27 05:45:09;;;;;;;14.13;9.10;;;19.60;99.90;;;;;;4150279;28;20235;-80
2022/08/27 05:47:12;;;;;;;13.07;9.47;;;19.60;99.90;;;;;;4136155;28;20356;-79
2022/08/27 05:49:15;;;;;;;14.67;9.30;;;19.60;99.90;;;;;;4153031;28;20233;-79
2022/08/27 05:51:21;;;;;;;16.53;10.17;;;19.70;99.90;;;;;;4152957;28;20752;-79
2022/08/27 05:53:23;;;;;;;14.43;9.13;;;19.70;99.90;;;;;;4150328;28;20204;-79
2022/08/27 05:55:25;;;;;;;14.93;9.40;;;19.70;99.90;;;;;;4149594;28;20260;-79
2022/08/27 05:57:27;;;;;;;14.70;9.60;;;19.70;99.90;;;;;;4130554;28;20305;-79
2022/08/27 06:01:50;;;;;;;18.57;10.17;;;19.80;99.90;;;;;;4154558;28;20235;-80
2022/08/27 06:03:54;;;;;;;17.90;10.17;;;19.80;99.90;;;;;;4141072;28;20241;-80
2022/08/27 06:06:01;;;;;;;15.37;8.93;;;19.80;99.90;;;;;;4157572;28;20318;-80
2022/08/27 06:08:03;;;;;;;14.40;9.27;;;19.80;99.90;;;;;;4131866;28;20601;-79
2022/08/27 06:10:07;;;;;;;17.30;10.67;;;19.80;99.90;;;;;;4151626;28;20253;-79
2022/08/27 06:12:09;;;;;;;19.90;11.00;;;19.80;99.90;;;;;;4156808;28;20215;-80
2022/08/27 06:14:11;;;;;;;15.90;9.40;;;19.90;99.90;;;;;;4156669;28;20230;-81
2022/08/27 06:16:16;;;;;;;17.43;9.70;;;19.90;99.90;;;;;;4152315;28;20223;-82
2022/08/27 06:18:17;;;;;;;14.77;9.23;;;19.90;99.90;;;;;;4137416;28;20211;-79
2022/08/27 06:20:22;;;;;;;20.97;11.07;;;19.90;99.90;;;;;;4134981;28;20209;-78
2022/08/27 06:22:24;;;;;;;19.30;12.40;;;19.90;99.90;;;;;;4148485;28;20294;-76
2022/08/27 06:24:26;;;;;;;23.00;12.67;;;19.90;99.90;;;;;;4132128;28;20303;-77
2022/08/27 06:26:28;;;;;;;19.43;12.00;;;19.90;99.90;;;;;;4151057;28;20219;-78
2022/08/27 06:28:30;;;;;;;26.33;14.77;;;19.90;99.90;;;;;;4152465;28;20315;-77
2022/08/27 06:30:32;;;;;;;24.10;13.70;;;19.90;99.90;;;;;;4155976;28;20210;-79
2022/08/27 06:32:34;;;;;;;23.13;12.87;;;20.00;99.90;;;;;;4151399;28;20258;-79
2022/08/27 06:34:36;;;;;;;30.80;17.93;;;20.00;99.90;;;;;;4133974;28;20215;-78
2022/08/27 06:36:41;;;;;;;29.57;18.40;;;20.00;99.90;;;;;;4151890;28;20208;-75
2022/08/27 06:38:44;;;;;;;38.40;21.10;;;20.10;99.90;;;;;;4152128;28;20243;-76
2022/08/27 06:40:46;;;;;;;37.20;21.33;;;20.10;99.90;;;;;;4154074;28;20287;-78
2022/08/27 06:42:48;;;;;;;31.60;19.07;;;20.10;99.90;;;;;;4132923;28;20232;-77
2022/08/27 06:44:50;;;;;;;31.43;19.60;;;20.10;99.90;;;;;;4137461;28;20296;-77
2022/08/27 06:46:52;;;;;;;30.13;18.23;;;20.10;99.90;;;;;;4152441;28;20321;-73
2022/08/27 06:48:56;;;;;;;29.40;18.13;;;20.10;99.90;;;;;;4152450;28;20234;-77
2022/08/27 06:50:58;;;;;;;27.37;17.47;;;20.10;99.90;;;;;;4151684;28;20286;-76
2022/08/27 06:53:01;;;;;;;28.40;17.33;;;20.10;99.90;;;;;;4156755;28;20733;-76
2022/08/27 06:55:04;;;;;;;28.47;16.97;;;20.20;99.90;;;;;;4149719;28;20224;-76
2022/08/27 06:57:06;;;;;;;28.17;17.37;;;20.20;99.90;;;;;;4133818;28;20244;-75
2022/08/27 06:59:10;;;;;;;31.03;17.83;;;20.10;99.90;;;;;;4153263;28;20635;-77
2022/08/27 07:01:13;;;;;;;34.20;19.90;;;20.20;99.90;;;;;;4153814;28;20203;-77
2022/08/27 07:03:15;;;;;;;37.87;20.07;;;20.20;99.90;;;;;;4157720;28;20204;-77
2022/08/27 07:05:17;;;;;;;33.17;18.70;;;20.20;99.90;;;;;;4152994;28;20207;-75
2022/08/27 07:07:19;;;;;;;34.33;19.27;;;20.20;99.90;;;;;;4154528;28;20218;-76
2022/08/27 07:09:24;;;;;;;37.10;20.00;;;20.20;99.90;;;;;;4151933;28;20306;-75
2022/08/27 07:11:27;;;;;;;36.37;19.67;;;20.20;99.90;;;;;;4147327;28;20669;-76
2022/08/27 07:13:29;;;;;;;35.23;19.73;;;20.30;99.90;;;;;;4136428;28;20212;-76
2022/08/27 07:15:31;;;;;;;36.20;19.33;;;20.30;99.90;;;;;;4152347;28;20204;-76
2022/08/27 07:17:33;;;;;;;37.20;19.67;;;20.30;99.90;;;;;;4154128;28;20708;-77
2022/08/27 07:19:37;;;;;;;39.37;21.17;;;20.30;99.90;;;;;;4134804;28;20228;-76
2022/08/27 07:21:39;;;;;;;43.37;23.60;;;20.30;99.90;;;;;;4132193;28;20270;-76
2022/08/27 07:23:42;;;;;;;41.20;22.33;;;20.30;99.90;;;;;;4152799;28;20200;-76
2022/08/27 07:25:45;;;;;;;41.90;21.77;;;20.30;99.90;;;;;;4137877;28;20705;-77
2022/08/27 07:27:48;;;;;;;43.20;22.97;;;20.30;99.90;;;;;;4152147;28;20214;-78
2022/08/27 07:29:49;;;;;;;44.13;21.90;;;20.30;99.90;;;;;;4153457;28;20717;-76
2022/08/27 07:31:51;;;;;;;39.67;21.10;;;20.30;99.90;;;;;;4151569;28;20210;-77
2022/08/27 07:33:53;;;;;;;36.77;20.13;;;20.30;99.90;;;;;;4138954;28;20231;-75
2022/08/27 07:35:55;;;;;;;44.93;23.57;;;20.30;99.90;;;;;;4151286;28;20208;-77
2022/08/27 07:37:57;;;;;;;57.37;29.80;;;20.40;99.90;;;;;;4150213;28;20272;-75
2022/08/27 07:39:59;;;;;;;46.70;26.03;;;20.40;99.90;;;;;;4148788;28;20231;-78
2022/08/27 07:44:25;;;;;;;45.37;24.77;;;20.40;99.90;;;;;;4137013;28;20728;-78
2022/08/27 07:46:27;;;;;;;38.90;21.47;;;20.40;99.90;;;;;;4151531;28;20227;-77
2022/08/27 07:48:31;;;;;;;39.23;21.17;;;20.40;99.90;;;;;;4135483;28;20618;-78
2022/08/27 07:50:33;;;;;;;37.47;20.63;;;20.40;99.90;;;;;;4149839;28;20243;-81
2022/08/27 07:52:36;;;;;;;41.83;20.83;;;20.40;99.90;;;;;;4133674;28;20209;-79
2022/08/27 07:54:39;;;;;;;39.47;20.17;;;20.40;99.90;;;;;;4133306;28;20223;-78
2022/08/27 07:56:42;;;;;;;40.97;20.53;;;20.40;99.90;;;;;;4131831;28;20268;-78
2022/08/27 07:58:45;;;;;;;40.80;21.97;;;20.40;99.90;;;;;;4135582;28;20771;-78
2022/08/27 08:00:47;;;;;;;42.07;21.90;;;20.30;99.90;;;;;;4154626;28;20219;-77
2022/08/27 08:02:49;;;;;;;36.30;20.70;;;20.30;99.90;;;;;;4148768;28;20296;-78
2022/08/27 08:04:51;;;;;;;42.80;20.13;;;20.30;99.90;;;;;;4142005;28;20637;-78
2022/08/27 08:06:54;;;;;;;39.70;19.37;;;20.40;99.90;;;;;;4134423;28;20310;-78
2022/08/27 08:08:56;;;;;;;31.80;17.93;;;20.30;99.90;;;;;;4155043;28;20223;-78
2022/08/27 08:10:58;;;;;;;32.80;17.47;;;20.40;99.90;;;;;;4155342;28;20199;-79
2022/08/27 08:13:00;;;;;;;33.60;17.93;;;20.30;99.90;;;;;;4153361;28;20208;-82
2022/08/27 08:15:05;;;;;;;35.37;17.87;;;20.40;99.90;;;;;;4151279;28;20255;-81
2022/08/27 08:17:09;;;;;;;30.30;16.60;;;20.30;99.90;;;;;;4156244;28;20631;-80
2022/08/27 08:19:11;;;;;;;32.97;17.47;;;20.50;99.90;;;;;;4135637;28;20283;-83
2022/08/27 08:21:14;;;;;;;27.87;15.43;;;20.30;99.90;;;;;;4121546;28;20223;-80
2022/08/27 08:23:16;;;;;;;29.20;16.63;;;20.40;99.90;;;;;;4137562;28;20629;-80
2022/08/27 08:25:18;;;;;;;35.07;20.20;;;20.40;99.90;;;;;;4133392;28;20657;-76
2022/08/27 08:27:20;;;;;;;30.10;17.17;;;20.40;99.90;;;;;;4151849;28;20390;-76
2022/08/27 08:29:22;;;;;;;31.30;17.50;;;20.40;99.90;;;;;;4155185;28;20223;-77
2022/08/27 08:31:26;;;;;;;27.50;15.87;;;20.40;99.90;;;;;;4132814;28;20666;-78
2022/08/27 08:33:30;;;;;;;24.17;15.40;;;20.50;99.90;;;;;;4151758;28;20779;-77
2022/08/27 08:35:32;;;;;;;30.47;17.90;;;20.50;99.90;;;;;;4146826;28;20243;-80
2022/08/27 08:37:34;;;;;;;31.80;18.47;;;20.60;99.90;;;;;;4136234;28;20577;-76
2022/08/27 08:39:37;;;;;;;29.93;17.83;;;20.60;99.90;;;;;;4157246;28;20225;-77
2022/08/27 08:41:42;;;;;;;28.53;16.40;;;20.60;99.90;;;;;;4130978;28;20212;-80
2022/08/27 08:43:50;;;;;;;29.73;16.93;;;20.60;99.90;;;;;;4152955;28;20204;-77
2022/08/27 08:45:53;;;;;;;30.53;18.40;;;20.60;99.90;;;;;;4134771;28;20642;-77
2022/08/27 08:48:03;;;;;;;31.20;17.93;;;20.70;99.90;;;;;;4127566;28;20228;-78
2022/08/27 08:50:10;;;;;;;30.23;16.37;;;20.70;99.90;;;;;;4157804;28;20246;-78
2022/08/27 08:52:30;;;;;;;29.37;17.60;;;20.80;99.90;;;;;;4121883;28;20201;-78
2022/08/27 08:54:38;;;;;;;32.10;17.60;;;20.80;99.90;;;;;;4152357;28;20231;-77
2022/08/27 08:56:50;;;;;;;28.70;17.57;;;20.80;99.90;;;;;;4141541;28;20195;-79
2022/08/27 08:58:58;;;;;;;28.97;16.63;;;20.90;99.90;;;;;;4154616;28;20230;-78
2022/08/27 09:01:04;;;;;;;30.87;16.90;;;20.90;99.90;;;;;;4155429;28;20206;-78
2022/08/27 09:03:10;;;;;;;27.20;16.33;;;20.90;99.90;;;;;;4152954;28;20298;-77
2022/08/27 09:05:12;;;;;;;29.23;16.70;;;21.00;99.90;;;;;;4139362;28;20204;-79
2022/08/27 09:07:20;;;;;;;24.80;14.40;;;21.00;99.90;;;;;;4132003;28;20224;-77
2022/08/27 09:09:25;;;;;;;24.27;14.57;;;21.00;99.90;;;;;;4147174;28;20314;-77
2022/08/27 09:11:33;;;;;;;27.33;15.03;;;21.00;99.90;;;;;;4152058;28;20219;-77
2022/08/27 09:13:40;;;;;;;24.33;15.03;;;21.00;99.90;;;;;;4148960;28;20210;-79
2022/08/27 09:15:42;;;;;;;23.57;14.47;;;21.00;99.90;;;;;;4147316;28;20210;-78
2022/08/27 09:17:46;;;;;;;21.03;13.67;;;21.00;99.90;;;;;;4138374;28;20254;-77
2022/08/27 09:19:50;;;;;;;24.97;13.97;;;21.00;99.90;;;;;;4152841;28;20258;-79
2022/08/27 09:21:58;;;;;;;28.93;15.93;;;21.00;99.90;;;;;;4146542;28;20208;-77
2022/08/27 09:24:09;;;;;;;25.43;14.73;;;21.00;99.90;;;;;;4150972;28;20207;-77
2022/08/27 09:26:19;;;;;;;22.70;14.33;;;20.90;99.90;;;;;;4135402;28;20215;-77
2022/08/27 09:30:44;;;;;;;20.17;12.50;;;20.90;99.90;;;;;;4152872;28;20191;-77
2022/08/27 09:32:55;;;;;;;19.13;12.53;;;20.90;99.90;;;;;;4150479;28;20203;-77
2022/08/27 09:35:02;;;;;;;15.80;11.20;;;20.90;99.90;;;;;;4152709;28;20293;-78
2022/08/27 09:37:10;;;;;;;17.30;10.93;;;20.90;99.90;;;;;;4150929;28;20196;-78
2022/08/27 09:39:13;;;;;;;19.63;12.37;;;20.90;99.90;;;;;;4153872;28;20234;-77
2022/08/27 09:41:22;;;;;;;19.87;13.07;;;20.90;99.90;;;;;;4148701;28;20208;-78
2022/08/27 09:43:27;;;;;;;20.73;13.90;;;20.90;99.90;;;;;;4149998;28;20263;-78
2022/08/27 09:45:30;;;;;;;22.63;14.37;;;20.90;99.90;;;;;;4146423;28;20212;-77
2022/08/27 09:47:41;;;;;;;21.30;14.13;;;20.90;99.90;;;;;;4156149;28;20259;-78
2022/08/27 09:49:43;;;;;;;20.80;12.90;;;20.80;99.90;;;;;;4135056;28;20314;-78
2022/08/27 09:51:48;;;;;;;22.50;13.83;;;20.90;99.90;;;;;;4147760;28;20211;-78
2022/08/27 09:53:54;;;;;;;19.37;11.93;;;20.80;99.90;;;;;;4152125;28;20206;-78
2022/08/27 09:55:59;;;;;;;22.20;12.77;;;20.70;99.90;;;;;;4149703;28;20203;-78
2022/08/27 09:58:03;;;;;;;19.33;11.63;;;20.60;99.90;;;;;;4155461;28;20199;-77
2022/08/27 10:00:13;;;;;;;16.57;11.27;;;20.60;99.90;;;;;;4155908;28;20245;-78
2022/08/27 10:02:22;;;;;;;18.23;11.13;;;20.50;99.90;;;;;;4145068;28;20286;-78
2022/08/27 10:04:34;;;;;;;16.57;10.67;;;20.40;99.90;;;;;;4132785;28;20253;-78
2022/08/27 10:06:37;;;;;;;20.83;12.00;;;20.40;99.90;;;;;;4147244;28;20215;-77
2022/08/27 10:08:43;;;;;;;21.57;12.77;;;20.20;99.90;;;;;;4150361;28;20225;-78
2022/08/27 10:10:53;;;;;;;20.93;12.10;;;20.10;99.90;;;;;;4146893;28;20206;-77
2022/08/27 10:13:01;;;;;;;25.37;13.93;;;20.10;99.90;;;;;;4148878;28;20207;-77
2022/08/27 10:15:06;;;;;;;25.40;13.77;;;20.00;99.90;;;;;;4155371;28;20239;-77
2022/08/27 10:17:17;;;;;;;22.90;13.10;;;19.90;99.90;;;;;;4148812;28;20701;-78
2022/08/27 10:19:30;;;;;;;25.87;14.73;;;19.90;99.90;;;;;;4132068;28;20255;-77
2022/08/27 10:21:44;;;;;;;27.70;14.57;;;19.80;99.90;;;;;;4151328;28;20265;-77
2022/08/27 10:23:57;;;;;;;25.73;14.37;;;19.80;99.90;;;;;;4152210;28;20774;-77
2022/08/27 10:26:06;;;;;;;28.37;15.53;;;19.80;99.90;;;;;;4155978;28;20290;-77
2022/08/27 10:28:23;;;;;;;29.43;15.40;;;19.80;99.90;;;;;;4134805;28;20224;-77
2022/08/27 10:30:34;;;;;;;32.63;16.93;;;19.80;99.90;;;;;;4152225;28;20221;-77
2022/08/27 10:32:50;;;;;;;37.33;17.27;;;19.80;99.90;;;;;;4153890;28;20214;-77
2022/08/27 10:35:05;;;;;;;30.97;17.00;;;19.80;99.90;;;;;;4136624;28;20302;-77
2022/08/27 10:37:17;;;;;;;34.93;17.73;;;19.80;99.90;;;;;;4151295;28;20211;-77
2022/08/27 10:39:39;;;;;;;34.80;17.63;;;19.80;99.90;;;;;;4151244;28;20649;-77